Time;durP1;ratioP1;P1;durP2;ratioP2;P2;SDS_P1;SDS_P2;PMS_P1;PMS_P2;Temp;Humidity;BMP_temperature;BMP_pressure;BME280_temperature;BME280_humidity;BME280_pressure;Samples;Min_cycle;Max_cycle;Signal;HPM_P1;HPM_P2
2022/04/13 00:00:46;;;;;;;18.20;4.13;;;;;;;;;;5037904;28;20502;-79
2022/04/13 00:03:12;;;;;;;9.40;3.30;;;;;;;;;;5040532;28;20065;-79
2022/04/13 00:05:38;;;;;;;11.10;3.25;;;;;;;;;;5030090;28;20064;-80
2022/04/13 00:08:06;;;;;;;15.18;2.92;;;;;;;;;;5040562;28;20517;-79
2022/04/13 00:10:35;;;;;;;11.82;3.17;;;;;;;;;;5050375;28;20036;-80
2022/04/13 00:13:02;;;;;;;14.07;3.85;;;;;;;;;;5057293;28;20040;-79
2022/04/13 00:15:28;;;;;;;12.95;4.30;;;;;;;;;;5044265;28;20068;-80
2022/04/13 00:17:54;;;;;;;13.25;3.60;;;;;;;;;;5043167;28;20082;-79
2022/04/13 00:20:21;;;;;;;12.15;3.05;;;;;;;;;;5068401;28;20067;-80
2022/04/13 00:22:47;;;;;;;11.23;3.20;;;;;;;;;;5046371;28;20433;-79
2022/04/13 00:25:14;;;;;;;17.77;6.40;;;;;;;;;;5049345;28;20104;-80
2022/04/13 00:27:40;;;;;;;16.75;6.53;;;;;;;;;;5039077;28;20429;-79
2022/04/13 00:30:06;;;;;;;11.82;3.80;;;;;;;;;;5049923;28;20429;-79
2022/04/13 00:32:33;;;;;;;11.45;4.68;;;;;;;;;;5049322;28;20033;-79
2022/04/13 00:35:02;;;;;;;11.32;3.55;;;;;;;;;;5049180;28;20029;-80
2022/04/13 00:37:29;;;;;;;11.07;3.35;;;;;;;;;;5049223;28;20055;-80
2022/04/13 00:39:55;;;;;;;16.13;3.67;;;;;;;;;;5047969;28;20047;-80
2022/04/13 00:42:21;;;;;;;10.50;3.00;;;;;;;;;;5049658;28;20029;-79
2022/04/13 00:44:47;;;;;;;15.85;3.60;;;;;;;;;;5049448;28;20033;-80
2022/04/13 00:47:14;;;;;;;13.65;5.22;;;;;;;;;;5042763;28;20479;-79
2022/04/13 00:49:40;;;;;;;14.63;3.88;;;;;;;;;;5037284;28;20064;-80
2022/04/13 00:52:07;;;;;;;23.02;3.13;;;;;;;;;;5049234;28;20119;-79
2022/04/13 00:54:33;;;;;;;13.38;3.15;;;;;;;;;;5043169;28;20021;-80
2022/04/13 00:57:01;;;;;;;14.55;3.08;;;;;;;;;;5049389;28;20033;-80
2022/04/13 00:59:27;;;;;;;12.20;3.20;;;;;;;;;;5048917;28;21000;-80
2022/04/13 01:01:58;;;;;;;14.40;2.50;;;;;;;;;;5049005;28;20079;-80
2022/04/13 01:04:26;;;;;;;7.20;1.83;;;;;;;;;;5032344;28;20099;-79
2022/04/13 01:06:53;;;;;;;14.15;2.63;;;;;;;;;;5049107;28;20052;-79
2022/04/13 01:09:19;;;;;;;10.43;2.60;;;;;;;;;;5042267;28;20028;-80
2022/04/13 01:11:45;;;;;;;10.93;2.50;;;;;;;;;;5040388;28;20041;-80
2022/04/13 01:14:11;;;;;;;15.13;2.92;;;;;;;;;;5040189;28;20368;-80
2022/04/13 01:16:39;;;;;;;13.52;2.92;;;;;;;;;;5048819;28;20041;-80
2022/04/13 01:19:06;;;;;;;9.77;2.08;;;;;;;;;;5049144;28;20107;-79
2022/04/13 01:21:47;;;;;;;16.17;2.42;;;;;;;;;;5048697;28;20107;-79
2022/04/13 01:24:14;;;;;;;10.20;2.50;;;;;;;;;;5041462;28;20032;-79
2022/04/13 01:26:40;;;;;;;11.80;1.92;;;;;;;;;;5035471;28;20049;-79
2022/04/13 01:29:07;;;;;;;14.57;2.97;;;;;;;;;;5029966;28;20061;-80
2022/04/13 01:31:33;;;;;;;13.73;2.97;;;;;;;;;;5057789;28;20073;-79
2022/04/13 01:33:59;;;;;;;12.77;2.22;;;;;;;;;;5049399;28;20062;-79
2022/04/13 01:36:26;;;;;;;14.73;2.70;;;;;;;;;;5048227;28;20033;-79
2022/04/13 01:38:52;;;;;;;16.73;2.83;;;;;;;;;;5049148;28;20039;-79
2022/04/13 01:41:18;;;;;;;12.95;3.42;;;;;;;;;;5048833;28;20071;-79
2022/04/13 01:43:44;;;;;;;16.55;3.42;;;;;;;;;;5040013;28;20069;-80
2022/04/13 01:46:10;;;;;;;16.25;3.63;;;;;;;;;;5031882;28;20561;-80
2022/04/13 01:48:36;;;;;;;14.15;3.97;;;;;;;;;;5051956;28;20033;-79
2022/04/13 01:51:02;;;;;;;11.25;3.22;;;;;;;;;;5046053;28;20064;-80
2022/04/13 01:53:28;;;;;;;11.98;3.90;;;;;;;;;;5054555;28;20070;-80
2022/04/13 01:55:55;;;;;;;11.13;3.97;;;;;;;;;;5044854;28;20037;-79
2022/04/13 01:58:21;;;;;;;13.05;3.53;;;;;;;;;;5052510;28;20033;-80
2022/04/13 02:00:51;;;;;;;12.38;4.00;;;;;;;;;;5052621;28;20063;-79
2022/04/13 02:03:18;;;;;;;13.98;4.32;;;;;;;;;;5046440;28;20033;-79
2022/04/13 02:05:44;;;;;;;15.05;3.90;;;;;;;;;;5043540;28;20112;-80
2022/04/13 02:08:10;;;;;;;14.23;3.58;;;;;;;;;;5051997;28;20104;-80
2022/04/13 02:10:36;;;;;;;15.40;3.78;;;;;;;;;;5052433;28;20494;-79
2022/04/13 02:13:02;;;;;;;15.32;3.95;;;;;;;;;;5044628;28;20033;-79
2022/04/13 02:15:28;;;;;;;16.15;3.90;;;;;;;;;;5052336;28;20037;-79
2022/04/13 02:17:54;;;;;;;13.55;5.13;;;;;;;;;;5051600;28;20032;-79
2022/04/13 02:20:20;;;;;;;15.73;4.63;;;;;;;;;;5052239;28;20044;-80
2022/04/13 02:22:46;;;;;;;16.67;4.03;;;;;;;;;;5051279;28;20101;-79
2022/04/13 02:25:12;;;;;;;14.18;3.92;;;;;;;;;;5052105;28;20045;-79
2022/04/13 02:27:38;;;;;;;15.05;4.63;;;;;;;;;;5051400;28;20090;-79
2022/04/13 02:30:04;;;;;;;12.90;4.55;;;;;;;;;;5051980;28;20111;-79
2022/04/13 02:32:30;;;;;;;14.20;4.40;;;;;;;;;;5049681;28;20036;-80
2022/04/13 02:34:56;;;;;;;13.35;3.95;;;;;;;;;;5048527;28;20033;-80
2022/04/13 02:37:22;;;;;;;15.50;4.60;;;;;;;;;;5051804;28;20029;-79
2022/04/13 02:39:48;;;;;;;13.02;4.68;;;;;;;;;;5038073;28;20040;-80
2022/04/13 02:42:17;;;;;;;14.23;4.50;;;;;;;;;;5048475;28;20029;-79
2022/04/13 02:44:44;;;;;;;15.20;4.72;;;;;;;;;;5021678;28;20029;-80
2022/04/13 02:47:12;;;;;;;15.82;5.72;;;;;;;;;;5042950;28;20391;-80
2022/04/13 02:49:38;;;;;;;14.57;5.00;;;;;;;;;;5044356;28;20406;-79
2022/04/13 02:52:05;;;;;;;15.30;5.30;;;;;;;;;;5043688;28;20087;-80
2022/04/13 02:54:31;;;;;;;13.60;6.28;;;;;;;;;;5038987;28;20032;-79
2022/04/13 02:56:57;;;;;;;16.60;6.05;;;;;;;;;;5051379;28;20694;-80
2022/04/13 02:59:23;;;;;;;19.05;6.47;;;;;;;;;;5042231;28;20074;-80
2022/04/13 03:01:49;;;;;;;21.35;6.00;;;;;;;;;;5031435;28;20125;-79
2022/04/13 03:04:16;;;;;;;15.15;4.85;;;;;;;;;;5033274;28;20061;-80
2022/04/13 03:06:42;;;;;;;15.27;5.60;;;;;;;;;;5051177;28;20072;-79
2022/04/13 03:09:08;;;;;;;18.63;7.00;;;;;;;;;;5050188;28;20037;-79
2022/04/13 03:11:34;;;;;;;16.38;7.60;;;;;;;;;;5046166;28;20167;-79
2022/04/13 03:14:00;;;;;;;19.20;8.00;;;;;;;;;;5045673;28;20509;-79
2022/04/13 03:16:26;;;;;;;17.95;8.93;;;;;;;;;;5043099;28;20041;-80
2022/04/13 03:18:52;;;;;;;18.65;8.93;;;;;;;;;;5051200;28;20049;-79
2022/04/13 03:21:18;;;;;;;19.85;10.10;;;;;;;;;;5043970;28;20557;-80
2022/04/13 03:23:44;;;;;;;27.42;12.45;;;;;;;;;;5035067;28;20037;-80
2022/04/13 03:26:10;;;;;;;24.15;12.10;;;;;;;;;;5038306;28;20765;-80
2022/04/13 03:28:36;;;;;;;18.98;9.70;;;;;;;;;;5045984;28;20108;-80
2022/04/13 03:31:02;;;;;;;16.40;7.65;;;;;;;;;;5042474;28;20382;-80
2022/04/13 03:33:28;;;;;;;19.13;7.13;;;;;;;;;;5047040;28;20031;-79
2022/04/13 03:35:54;;;;;;;18.60;7.63;;;;;;;;;;5049827;28;20040;-80
2022/04/13 03:38:20;;;;;;;25.92;10.80;;;;;;;;;;5049064;28;20028;-80
2022/04/13 03:40:46;;;;;;;23.00;9.65;;;;;;;;;;5029459;28;20030;-80
2022/04/13 03:43:12;;;;;;;22.65;8.73;;;;;;;;;;5046345;28;20450;-79
2022/04/13 03:45:38;;;;;;;17.42;6.95;;;;;;;;;;5039137;28;20035;-79
2022/04/13 03:48:04;;;;;;;14.93;5.63;;;;;;;;;;5048833;28;20043;-80
2022/04/13 03:50:30;;;;;;;13.05;4.40;;;;;;;;;;5041672;28;20074;-79
2022/04/13 03:52:56;;;;;;;10.95;4.03;;;;;;;;;;5049644;28;20033;-79
2022/04/13 03:55:22;;;;;;;20.42;4.82;;;;;;;;;;5049941;28;20092;-80
2022/04/13 03:57:52;;;;;;;15.20;3.58;;;;;;;;;;5045568;28;20064;-79
2022/04/13 04:00:18;;;;;;;15.00;3.92;;;;;;;;;;5046783;28;20036;-80
2022/04/13 04:02:44;;;;;;;12.25;4.47;;;;;;;;;;5034364;28;20045;-79
2022/04/13 04:05:13;;;;;;;17.30;3.88;;;;;;;;;;5040290;28;20069;-79
2022/04/13 04:07:40;;;;;;;12.20;4.28;;;;;;;;;;5049094;28;20033;-79
2022/04/13 04:10:07;;;;;;;13.70;4.05;;;;;;;;;;5046287;28;20043;-79
2022/04/13 04:12:37;;;;;;;16.05;5.22;;;;;;;;;;5046648;28;20036;-80
2022/04/13 04:15:03;;;;;;;14.95;4.97;;;;;;;;;;5050039;28;20033;-79
2022/04/13 04:17:29;;;;;;;15.85;4.45;;;;;;;;;;5049266;28;20013;-80
2022/04/13 04:19:55;;;;;;;13.00;3.88;;;;;;;;;;5050083;28;20074;-80
2022/04/13 04:22:24;;;;;;;12.68;5.00;;;;;;;;;;5034708;28;20124;-79
2022/04/13 04:24:50;;;;;;;18.55;5.47;;;;;;;;;;5041582;28;20040;-80
2022/04/13 04:27:16;;;;;;;17.25;5.45;;;;;;;;;;5040086;28;20033;-80
2022/04/13 04:29:42;;;;;;;16.98;5.40;;;;;;;;;;5048066;28;20036;-79
2022/04/13 04:32:08;;;;;;;15.55;5.72;;;;;;;;;;5045703;28;20040;-79
2022/04/13 04:34:34;;;;;;;12.30;4.60;;;;;;;;;;5049265;28;20104;-80
2022/04/13 04:37:00;;;;;;;17.45;4.53;;;;;;;;;;5049803;28;20033;-79
2022/04/13 04:39:26;;;;;;;14.60;4.38;;;;;;;;;;5056548;28;20020;-80
2022/04/13 04:41:53;;;;;;;14.40;5.22;;;;;;;;;;5060871;28;20742;-79
2022/04/13 04:44:19;;;;;;;25.55;6.78;;;;;;;;;;5044009;28;20090;-79
2022/04/13 04:46:45;;;;;;;16.90;4.57;;;;;;;;;;5050059;28;20168;-80
2022/04/13 04:49:11;;;;;;;13.15;4.68;;;;;;;;;;5048866;28;20465;-79
2022/04/13 04:51:37;;;;;;;25.23;5.30;;;;;;;;;;5048856;28;20035;-79
2022/04/13 04:54:04;;;;;;;22.17;5.30;;;;;;;;;;5041163;28;20048;-79
2022/04/13 04:56:30;;;;;;;20.65;5.55;;;;;;;;;;5029266;28;20430;-80
2022/04/13 04:58:56;;;;;;;23.80;5.85;;;;;;;;;;5038529;28;20025;-79
2022/04/13 05:01:23;;;;;;;18.30;5.78;;;;;;;;;;5039606;28;20067;-79
2022/04/13 05:03:49;;;;;;;23.38;5.43;;;;;;;;;;5029055;28;20046;-79
2022/04/13 05:06:20;;;;;;;19.73;5.20;;;;;;;;;;5034917;28;20476;-80
2022/04/13 05:08:46;;;;;;;19.80;4.82;;;;;;;;;;5040772;28;20088;-80
2022/04/13 05:11:12;;;;;;;16.38;5.45;;;;;;;;;;5040724;28;20106;-80
2022/04/13 05:13:38;;;;;;;19.05;5.63;;;;;;;;;;5049735;28;20131;-80
2022/04/13 05:16:05;;;;;;;24.25;6.20;;;;;;;;;;5048636;28;20789;-79
2022/04/13 05:18:31;;;;;;;20.30;5.25;;;;;;;;;;5049143;28;20195;-80
2022/04/13 05:20:57;;;;;;;19.98;6.05;;;;;;;;;;5046513;28;20148;-80
2022/04/13 05:23:23;;;;;;;24.92;6.35;;;;;;;;;;5034172;28;20033;-79
2022/04/13 05:25:49;;;;;;;26.05;8.15;;;;;;;;;;5036574;28;20041;-80
2022/04/13 05:28:16;;;;;;;22.30;7.38;;;;;;;;;;5052559;28;20496;-79
2022/04/13 05:30:42;;;;;;;24.90;8.88;;;;;;;;;;5041745;28;20037;-79
2022/04/13 05:33:08;;;;;;;28.90;7.47;;;;;;;;;;5041636;28;20040;-79
2022/04/13 05:35:34;;;;;;;25.65;7.45;;;;;;;;;;5053123;28;20033;-79
2022/04/13 05:38:02;;;;;;;29.60;8.13;;;;;;;;;;5052038;28;20027;-73
2022/04/13 05:40:28;;;;;;;20.85;7.28;;;;;;;;;;5045978;28;20494;-72
2022/04/13 05:42:54;;;;;;;18.85;7.03;;;;;;;;;;5048525;28;20043;-72
2022/04/13 05:45:20;;;;;;;30.60;7.22;;;;;;;;;;5048064;28;20041;-72
2022/04/13 05:47:46;;;;;;;15.98;5.85;;;;;;;;;;5044729;28;20055;-72
2022/04/13 05:50:13;;;;;;;24.75;6.15;;;;;;;;;;5035192;28;20044;-72
2022/04/13 05:52:40;;;;;;;29.30;6.85;;;;;;;;;;5050807;28;20116;-72
2022/04/13 05:55:07;;;;;;;23.42;6.75;;;;;;;;;;5051501;28;20120;-72
2022/04/13 05:57:33;;;;;;;27.08;6.93;;;;;;;;;;5046604;28;20099;-72
2022/04/13 05:59:59;;;;;;;38.10;9.20;;;;;;;;;;5033831;28;20065;-72
2022/04/13 06:02:25;;;;;;;24.73;8.68;;;;;;;;;;5045936;28;20060;-72
2022/04/13 06:04:51;;;;;;;27.60;8.93;;;;;;;;;;5038347;28;20057;-72
2022/04/13 06:07:17;;;;;;;26.73;8.93;;;;;;;;;;5041387;28;20533;-72
2022/04/13 06:09:43;;;;;;;25.83;8.02;;;;;;;;;;5051250;28;20064;-72
2022/04/13 06:12:09;;;;;;;22.08;6.78;;;;;;;;;;5051068;28;20025;-72
2022/04/13 06:14:35;;;;;;;25.88;7.90;;;;;;;;;;5054433;28;20034;-72
2022/04/13 06:17:02;;;;;;;25.92;6.72;;;;;;;;;;5047552;28;20037;-72
2022/04/13 06:19:28;;;;;;;26.67;7.80;;;;;;;;;;5036251;28;20029;-72
2022/04/13 06:21:53;;;;;;;27.98;7.75;;;;;;;;;;5047856;28;20083;-72
2022/04/13 06:24:19;;;;;;;27.52;7.07;;;;;;;;;;5050028;28;20466;-72
2022/04/13 06:26:45;;;;;;;29.00;6.85;;;;;;;;;;5045290;28;20040;-72
2022/04/13 06:29:11;;;;;;;28.85;7.55;;;;;;;;;;5041852;28;20047;-72
2022/04/13 06:31:37;;;;;;;36.70;9.27;;;;;;;;;;5039578;28;20131;-72
2022/04/13 06:34:03;;;;;;;34.00;8.85;;;;;;;;;;5036260;28;20033;-72
2022/04/13 06:36:29;;;;;;;34.95;8.60;;;;;;;;;;5045114;28;20033;-71
2022/04/13 06:38:56;;;;;;;26.38;7.85;;;;;;;;;;5050067;28;20033;-71
2022/04/13 06:41:22;;;;;;;32.25;8.95;;;;;;;;;;5049339;28;20075;-72
2022/04/13 06:43:48;;;;;;;34.40;8.73;;;;;;;;;;5050559;28;20068;-72
2022/04/13 06:46:14;;;;;;;24.70;7.72;;;;;;;;;;5046252;28;20040;-72
2022/04/13 06:48:40;;;;;;;35.90;9.10;;;;;;;;;;5049603;28;20033;-72
2022/04/13 06:51:06;;;;;;;33.63;9.52;;;;;;;;;;5043904;28;20036;-73
2022/04/13 06:53:32;;;;;;;33.05;8.40;;;;;;;;;;5050207;28;20079;-73
2022/04/13 06:55:58;;;;;;;29.73;8.23;;;;;;;;;;5044871;28;20056;-72
2022/04/13 06:58:24;;;;;;;35.90;8.80;;;;;;;;;;5050150;28;20040;-72
2022/04/13 07:00:50;;;;;;;29.40;8.85;;;;;;;;;;5049014;28;20029;-72
2022/04/13 07:03:16;;;;;;;28.20;7.75;;;;;;;;;;5045786;28;20037;-72
2022/04/13 07:05:42;;;;;;;26.50;7.65;;;;;;;;;;5049889;28;20077;-72
2022/04/13 07:08:09;;;;;;;23.75;7.18;;;;;;;;;;5041067;28;20065;-72
2022/04/13 07:10:35;;;;;;;22.58;7.85;;;;;;;;;;5042646;28;20033;-72
2022/04/13 07:13:01;;;;;;;28.52;7.97;;;;;;;;;;5049431;28;20040;-72
2022/04/13 07:15:27;;;;;;;23.48;8.70;;;;;;;;;;5050255;28;20025;-72
2022/04/13 07:17:53;;;;;;;26.17;6.85;;;;;;;;;;5049167;28;20064;-72
2022/04/13 07:20:20;;;;;;;28.85;6.80;;;;;;;;;;5047606;28;20037;-73
2022/04/13 07:22:50;;;;;;;22.83;6.57;;;;;;;;;;5049594;28;20074;-72
2022/04/13 07:25:17;;;;;;;23.65;6.82;;;;;;;;;;5049949;28;20587;-72
2022/04/13 07:27:43;;;;;;;23.02;5.15;;;;;;;;;;5047637;28;20036;-72
2022/04/13 07:30:10;;;;;;;20.20;5.35;;;;;;;;;;5049397;28;20037;-72
2022/04/13 07:32:36;;;;;;;18.90;5.35;;;;;;;;;;5048233;28;20166;-72
2022/04/13 07:35:05;;;;;;;24.15;5.65;;;;;;;;;;5045370;28;20045;-72
2022/04/13 07:37:31;;;;;;;19.15;6.00;;;;;;;;;;5048273;28;20074;-73
2022/04/13 07:39:57;;;;;;;22.27;5.13;;;;;;;;;;5047588;28;20071;-72
2022/04/13 07:42:23;;;;;;;25.35;5.60;;;;;;;;;;5043251;28;20055;-72
2022/04/13 07:44:49;;;;;;;17.70;3.80;;;;;;;;;;5044177;28;20125;-72
2022/04/13 07:47:16;;;;;;;26.73;4.75;;;;;;;;;;5044992;28;20109;-72
2022/04/13 07:49:43;;;;;;;21.52;3.80;;;;;;;;;;5039221;28;20037;-72
2022/04/13 07:52:09;;;;;;;17.83;4.60;;;;;;;;;;5044480;28;20102;-72
2022/04/13 07:54:35;;;;;;;25.40;5.32;;;;;;;;;;5044179;28;20040;-72
2022/04/13 07:57:01;;;;;;;15.27;3.90;;;;;;;;;;5041037;28;20112;-72
2022/04/13 07:59:27;;;;;;;19.35;4.40;;;;;;;;;;5053832;28;20033;-72
2022/04/13 08:01:54;;;;;;;21.42;5.55;;;;;;;;;;5047948;28;20033;-72
2022/04/13 08:04:20;;;;;;;25.48;5.55;;;;;;;;;;5047391;28;20457;-72
2022/04/13 08:06:46;;;;;;;25.98;4.68;;;;;;;;;;5044828;28;20036;-72
2022/04/13 08:09:12;;;;;;;21.05;3.72;;;;;;;;;;5045183;28;20041;-72
2022/04/13 08:11:38;;;;;;;14.85;3.42;;;;;;;;;;5048203;28;20036;-72
2022/04/13 08:14:04;;;;;;;24.40;6.07;;;;;;;;;;5048718;28;20074;-72
2022/04/13 08:16:30;;;;;;;18.60;4.20;;;;;;;;;;5044712;28;20056;-72
2022/04/13 08:18:56;;;;;;;22.67;3.70;;;;;;;;;;5041242;28;20518;-72
2022/04/13 08:21:22;;;;;;;29.05;5.05;;;;;;;;;;5045730;28;20043;-72
2022/04/13 08:23:48;;;;;;;18.17;3.33;;;;;;;;;;5041609;28;20060;-72
2022/04/13 08:26:14;;;;;;;19.27;3.65;;;;;;;;;;5046694;28;20029;-72
2022/04/13 08:28:40;;;;;;;17.13;3.75;;;;;;;;;;5048595;28;20044;-72
2022/04/13 08:31:09;;;;;;;24.40;4.22;;;;;;;;;;5042793;28;20029;-72
2022/04/13 08:33:35;;;;;;;18.58;3.97;;;;;;;;;;5047665;28;20032;-72
2022/04/13 08:36:01;;;;;;;22.75;3.40;;;;;;;;;;5045293;28;20113;-72
2022/04/13 08:38:27;;;;;;;15.00;3.53;;;;;;;;;;5040640;28;20116;-72
2022/04/13 08:41:01;;;;;;;14.30;2.95;;;;;;;;;;5046373;28;20124;-72
2022/04/13 08:43:57;;;;;;;21.20;3.05;;;;;;;;;;5053257;28;20521;-72
2022/04/13 08:46:25;;;;;;;14.73;2.88;;;;;;;;;;5030070;28;20081;-72
2022/04/13 08:48:55;;;;;;;14.73;2.95;;;;;;;;;;5033748;28;20440;-72
2022/04/13 08:51:22;;;;;;;12.82;2.78;;;;;;;;;;5037965;28;20059;-72
2022/04/13 08:53:49;;;;;;;19.92;2.83;;;;;;;;;;5040237;28;20059;-72
2022/04/13 08:56:18;;;;;;;21.88;3.42;;;;;;;;;;5046403;28;20033;-72
2022/04/13 08:58:57;;;;;;;26.02;2.70;;;;;;;;;;5044767;28;20029;-72
2022/04/13 09:01:43;;;;;;;17.38;3.00;;;;;;;;;;5046901;28;20033;-72
2022/04/13 09:04:10;;;;;;;22.77;2.85;;;;;;;;;;5012776;28;20049;-72
2022/04/13 09:06:37;;;;;;;16.63;2.60;;;;;;;;;;5047822;28;20064;-72
2022/04/13 09:09:05;;;;;;;17.25;2.55;;;;;;;;;;5045460;28;20460;-72
2022/04/13 09:11:32;;;;;;;21.00;2.72;;;;;;;;;;5044967;28;20056;-72
2022/04/13 09:13:58;;;;;;;14.27;2.80;;;;;;;;;;5041668;28;20044;-72
2022/04/13 09:16:25;;;;;;;12.30;2.47;;;;;;;;;;5047287;28;20056;-72
2022/04/13 09:18:51;;;;;;;9.07;2.53;;;;;;;;;;5045580;28;20064;-72
2022/04/13 09:21:17;;;;;;;11.38;2.28;;;;;;;;;;5044100;28;20048;-72
2022/04/13 09:23:44;;;;;;;11.27;2.15;;;;;;;;;;5043179;28;20935;-72
2022/04/13 09:26:10;;;;;;;14.15;2.40;;;;;;;;;;5043870;28;20071;-72
2022/04/13 09:28:37;;;;;;;13.57;2.22;;;;;;;;;;5045634;28;20442;-72
2022/04/13 09:31:04;;;;;;;17.48;1.98;;;;;;;;;;5046674;28;20029;-72
2022/04/13 09:33:31;;;;;;;8.10;1.40;;;;;;;;;;5043240;28;20033;-72
2022/04/13 09:35:57;;;;;;;12.85;2.22;;;;;;;;;;5046474;28;20029;-72
2022/04/13 09:38:24;;;;;;;14.30;2.35;;;;;;;;;;5044005;28;20040;-72
2022/04/13 09:40:51;;;;;;;13.60;2.42;;;;;;;;;;5045258;28;20368;-72
2022/04/13 09:43:19;;;;;;;17.02;2.65;;;;;;;;;;5046576;28;20029;-72
2022/04/13 09:45:46;;;;;;;8.80;2.05;;;;;;;;;;5047277;28;20044;-72
2022/04/13 09:48:13;;;;;;;14.63;1.58;;;;;;;;;;5046987;28;20689;-72
2022/04/13 09:50:39;;;;;;;17.83;2.25;;;;;;;;;;5044603;28;20040;-73
2022/04/13 09:53:06;;;;;;;18.23;2.28;;;;;;;;;;5041995;28;20033;-72
2022/04/13 09:55:51;;;;;;;14.63;1.92;;;;;;;;;;5028866;28;20112;-72
2022/04/13 09:58:22;;;;;;;16.35;2.80;;;;;;;;;;5045312;28;20477;-72
2022/04/13 10:00:49;;;;;;;13.15;2.10;;;;;;;;;;5039708;28;20033;-73
2022/04/13 10:03:16;;;;;;;22.38;3.05;;;;;;;;;;5046828;28;20424;-72
2022/04/13 10:05:46;;;;;;;12.43;2.03;;;;;;;;;;5043448;28;20048;-72
2022/04/13 10:08:13;;;;;;;8.88;1.63;;;;;;;;;;5043381;28;20476;-73
2022/04/13 10:10:43;;;;;;;12.80;1.52;;;;;;;;;;5046170;28;20104;-72
2022/04/13 10:13:09;;;;;;;13.48;2.15;;;;;;;;;;5049741;28;20063;-72
2022/04/13 10:15:35;;;;;;;10.35;1.70;;;;;;;;;;5050918;28;20685;-72
2022/04/13 10:18:03;;;;;;;11.63;1.58;;;;;;;;;;5054564;28;20032;-72
2022/04/13 10:20:43;;;;;;;12.65;2.80;;;;;;;;;;5056760;28;20628;-73
2022/04/13 10:23:09;;;;;;;9.30;1.42;;;;;;;;;;5047528;28;20459;-73
2022/04/13 10:25:35;;;;;;;9.02;1.63;;;;;;;;;;5032497;28;20618;-72
2022/04/13 10:28:01;;;;;;;12.45;1.90;;;;;;;;;;5041952;28;20056;-73
2022/04/13 10:30:32;;;;;;;12.50;2.40;;;;;;;;;;5042147;28;20375;-72
2022/04/13 10:32:59;;;;;;;14.18;2.08;;;;;;;;;;5047959;28;20033;-72
2022/04/13 10:35:26;;;;;;;11.70;1.98;;;;;;;;;;5049471;28;20103;-72
2022/04/13 10:37:52;;;;;;;9.95;2.10;;;;;;;;;;5043341;28;20033;-72
2022/04/13 10:40:22;;;;;;;10.48;1.90;;;;;;;;;;5041646;28;20032;-73
2022/04/13 10:42:50;;;;;;;11.43;1.67;;;;;;;;;;5036258;28;20033;-72
2022/04/13 10:45:17;;;;;;;11.68;1.80;;;;;;;;;;5046354;28;20037;-72
2022/04/13 10:47:59;;;;;;;11.50;1.80;;;;;;;;;;5049051;28;20028;-73
2022/04/13 10:50:34;;;;;;;9.82;1.67;;;;;;;;;;5046026;28;20037;-72
2022/04/13 10:53:05;;;;;;;8.57;2.13;;;;;;;;;;5045746;28;20033;-73
2022/04/13 10:55:33;;;;;;;12.97;2.37;;;;;;;;;;5050985;28;20029;-72
2022/04/13 10:58:18;;;;;;;10.40;1.02;;;;;;;;;;5050096;28;20035;-72
2022/04/13 11:00:46;;;;;;;9.40;1.52;;;;;;;;;;5042455;28;20466;-72
2022/04/13 11:03:12;;;;;;;8.82;1.50;;;;;;;;;;5047865;28;20032;-72
2022/04/13 11:05:40;;;;;;;9.35;1.50;;;;;;;;;;5032269;28;20057;-72
2022/04/13 11:08:06;;;;;;;4.63;1.23;;;;;;;;;;5049485;28;20032;-73
2022/04/13 11:10:34;;;;;;;10.07;1.60;;;;;;;;;;5042758;28;20518;-73
2022/04/13 11:13:00;;;;;;;8.57;1.30;;;;;;;;;;5040432;28;20032;-72
2022/04/13 11:15:40;;;;;;;6.18;1.45;;;;;;;;;;5049271;28;20036;-72
2022/04/13 11:18:10;;;;;;;11.45;1.75;;;;;;;;;;5043220;28;20033;-72
2022/04/13 11:20:36;;;;;;;6.90;1.15;;;;;;;;;;5041402;28;20029;-73
2022/04/13 11:23:16;;;;;;;13.75;1.88;;;;;;;;;;5045058;28;20071;-72
2022/04/13 11:25:45;;;;;;;11.02;1.50;;;;;;;;;;5045051;28;20041;-72
2022/04/13 11:28:11;;;;;;;11.65;1.63;;;;;;;;;;5046050;28;20033;-73
2022/04/13 11:30:58;;;;;;;12.27;1.63;;;;;;;;;;5049510;28;20091;-72
2022/04/13 11:33:38;;;;;;;11.25;1.63;;;;;;;;;;5017433;28;20076;-72
2022/04/13 11:36:06;;;;;;;;;;;;;;;;;;5043153;28;20045;-72
2022/04/13 11:38:36;;;;;;;7.40;1.60;;;;;;;;;;5047213;28;20365;-72
2022/04/13 11:41:07;;;;;;;12.30;1.60;;;;;;;;;;5049595;28;20071;-72
2022/04/13 11:43:33;;;;;;;13.75;2.03;;;;;;;;;;5034282;28;20570;-72
2022/04/13 11:46:00;;;;;;;9.27;1.85;;;;;;;;;;5018956;28;20047;-72
2022/04/13 11:48:36;;;;;;;13.57;1.75;;;;;;;;;;5049025;28;20036;-72
2022/04/13 11:51:20;;;;;;;11.88;1.88;;;;;;;;;;5048854;28;20473;-72
2022/04/13 11:53:53;;;;;;;11.80;1.67;;;;;;;;;;5047718;28;20041;-72
2022/04/13 11:56:32;;;;;;;13.10;2.17;;;;;;;;;;5024333;28;20363;-72
2022/04/13 11:58:58;;;;;;;11.82;2.20;;;;;;;;;;5046438;28;20039;-72
2022/04/13 12:01:26;;;;;;;6.82;1.83;;;;;;;;;;5047832;28;20040;-72
2022/04/13 12:03:52;;;;;;;10.35;2.03;;;;;;;;;;5047448;28;20052;-73
2022/04/13 12:06:21;;;;;;;14.73;2.35;;;;;;;;;;5049020;28;20099;-73
2022/04/13 12:08:52;;;;;;;7.75;1.58;;;;;;;;;;5046984;28;20104;-72
2022/04/13 12:11:19;;;;;;;13.90;1.90;;;;;;;;;;5040685;28;20417;-73
2022/04/13 12:13:55;;;;;;;6.15;1.80;;;;;;;;;;5051608;28;20037;-72
2022/04/13 12:16:23;;;;;;;11.32;1.65;;;;;;;;;;5028376;28;20394;-73
2022/04/13 12:18:49;;;;;;;6.57;1.60;;;;;;;;;;5044335;28;20037;-73
2022/04/13 12:21:16;;;;;;;10.70;1.85;;;;;;;;;;5042594;28;20024;-73
2022/04/13 12:23:43;;;;;;;10.88;1.80;;;;;;;;;;5047293;28;20044;-72
2022/04/13 12:26:09;;;;;;;17.20;2.85;;;;;;;;;;5056174;28;20116;-73
2022/04/13 12:28:35;;;;;;;8.48;1.42;;;;;;;;;;5048411;28;20037;-73
2022/04/13 12:31:03;;;;;;;8.73;1.33;;;;;;;;;;5043608;28;20033;-73
2022/04/13 12:33:30;;;;;;;11.23;1.83;;;;;;;;;;5047784;28;20135;-73
2022/04/13 12:36:00;;;;;;;9.63;1.60;;;;;;;;;;5031844;28;20059;-72
2022/04/13 12:38:30;;;;;;;8.43;2.17;;;;;;;;;;5046260;28;20033;-73
2022/04/13 12:41:16;;;;;;;15.57;1.92;;;;;;;;;;5045776;28;20107;-72
2022/04/13 12:43:43;;;;;;;10.48;2.10;;;;;;;;;;5043694;28;20035;-73
2022/04/13 12:46:13;;;;;;;10.80;1.85;;;;;;;;;;5048489;28;20029;-73
2022/04/13 12:48:40;;;;;;;11.23;1.80;;;;;;;;;;5048748;28;20064;-73
2022/04/13 12:51:06;;;;;;;10.80;1.83;;;;;;;;;;5047839;28;20029;-72
2022/04/13 12:53:46;;;;;;;8.30;1.88;;;;;;;;;;5046072;28;20029;-73
2022/04/13 12:56:16;;;;;;;10.23;2.08;;;;;;;;;;5046592;28;20083;-73
2022/04/13 12:58:42;;;;;;;8.52;1.50;;;;;;;;;;5037827;28;20036;-73
2022/04/13 13:01:10;;;;;;;8.40;1.60;;;;;;;;;;5040394;28;20029;-73
2022/04/13 13:03:38;;;;;;;13.32;1.55;;;;;;;;;;5047087;28;20049;-73
2022/04/13 13:06:08;;;;;;;8.75;1.40;;;;;;;;;;5048041;28;20033;-73
2022/04/13 13:08:34;;;;;;;15.77;2.78;;;;;;;;;;5046021;28;20052;-73
2022/04/13 13:11:00;;;;;;;5.57;1.42;;;;;;;;;;5048148;28;20037;-73
2022/04/13 13:13:36;;;;;;;6.70;1.40;;;;;;;;;;5047477;28;20036;-73
2022/04/13 13:16:02;;;;;;;11.38;2.40;;;;;;;;;;5045502;28;20037;-73
2022/04/13 13:18:28;;;;;;;18.02;10.80;;;;;;;;;;5047010;28;20040;-73
2022/04/13 13:20:58;;;;;;;9.70;2.50;;;;;;;;;;5023707;28;20037;-73
2022/04/13 13:23:25;;;;;;;9.50;1.83;;;;;;;;;;5040892;28;20078;-73
2022/04/13 13:25:51;;;;;;;12.13;5.78;;;;;;;;;;5047279;28;20532;-73
2022/04/13 13:28:17;;;;;;;18.02;7.13;;;;;;;;;;5046929;28;20032;-73
2022/04/13 13:30:50;;;;;;;15.40;2.17;;;;;;;;;;5038892;28;20098;-73
2022/04/13 13:33:16;;;;;;;9.65;1.58;;;;;;;;;;5035429;28;20021;-73
2022/04/13 13:35:42;;;;;;;13.13;2.67;;;;;;;;;;5041973;28;20021;-73
2022/04/13 13:38:12;;;;;;;10.13;1.30;;;;;;;;;;5038935;28;20036;-73
2022/04/13 13:40:47;;;;;;;10.00;1.88;;;;;;;;;;5036754;28;20113;-73
2022/04/13 13:43:16;;;;;;;8.45;1.63;;;;;;;;;;5045179;28;20071;-73
2022/04/13 13:45:50;;;;;;;7.95;1.35;;;;;;;;;;5050207;28;20141;-73
2022/04/13 13:48:26;;;;;;;9.70;1.90;;;;;;;;;;5050790;28;20025;-73
2022/04/13 13:50:53;;;;;;;7.55;1.60;;;;;;;;;;5050337;28;20037;-73
2022/04/13 13:53:24;;;;;;;11.80;1.50;;;;;;;;;;5047049;28;20098;-73
2022/04/13 13:55:50;;;;;;;12.73;1.58;;;;;;;;;;5048409;28;20033;-73
2022/04/13 13:58:17;;;;;;;10.52;1.95;;;;;;;;;;5050296;28;20036;-72
2022/04/13 14:00:43;;;;;;;7.05;1.75;;;;;;;;;;5043436;28;20084;-73
2022/04/13 14:03:10;;;;;;;8.60;2.78;;;;;;;;;;5036685;28;20056;-73
2022/04/13 14:05:36;;;;;;;15.68;2.22;;;;;;;;;;5046197;28;20482;-73
2022/04/13 14:08:04;;;;;;;9.45;2.10;;;;;;;;;;5042129;28;20459;-72
2022/04/13 14:10:30;;;;;;;14.48;2.13;;;;;;;;;;5041562;28;20088;-72
2022/04/13 14:12:57;;;;;;;6.50;1.75;;;;;;;;;;5028406;28;20029;-73
2022/04/13 14:15:23;;;;;;;7.68;1.60;;;;;;;;;;5050404;28;20069;-72
2022/04/13 14:17:49;;;;;;;7.20;1.48;;;;;;;;;;5050154;28;20057;-72
2022/04/13 14:20:16;;;;;;;10.10;1.92;;;;;;;;;;5050182;28;20033;-72
2022/04/13 14:22:42;;;;;;;16.65;1.50;;;;;;;;;;5049322;28;20159;-73
2022/04/13 14:25:09;;;;;;;7.05;1.65;;;;;;;;;;5050295;28;20052;-72
2022/04/13 14:27:35;;;;;;;10.30;1.50;;;;;;;;;;5049233;28;20033;-72
2022/04/13 14:30:02;;;;;;;6.75;1.45;;;;;;;;;;5050415;28;20382;-72
2022/04/13 14:32:28;;;;;;;8.68;1.67;;;;;;;;;;5042867;28;20030;-72